createdAt,value
2017-09-04T00:00:28.591Z,12.65
2017-09-04T00:01:25.844Z,12.66
2017-09-04T00:02:23.085Z,12.62
2017-09-04T00:03:20.342Z,12.62
2017-09-04T00:04:17.604Z,12.61
2017-09-04T00:05:14.877Z,12.60
2017-09-04T00:06:12.167Z,12.59
2017-09-04T00:07:09.463Z,12.58
2017-09-04T00:08:06.698Z,12.58
2017-09-04T00:09:03.947Z,12.57
2017-09-04T00:10:01.220Z,12.55
2017-09-04T00:10:58.481Z,12.53
2017-09-04T00:11:55.749Z,12.53
2017-09-04T00:12:52.989Z,12.52
2017-09-04T00:13:50.242Z,12.51
2017-09-04T00:14:47.534Z,12.50
2017-09-04T00:15:44.783Z,12.49
2017-09-04T00:16:42.074Z,12.47
2017-09-04T00:17:39.446Z,12.47
2017-09-04T00:18:36.711Z,12.47
2017-09-04T00:19:33.939Z,12.46
2017-09-04T00:20:31.215Z,12.43
2017-09-04T00:21:28.478Z,12.42
2017-09-04T00:22:25.746Z,12.41
2017-09-04T00:23:23.013Z,12.39
2017-09-04T00:24:20.255Z,12.39
2017-09-04T00:25:17.510Z,12.38
2017-09-04T00:26:14.772Z,12.37
2017-09-04T00:27:12.013Z,12.35
2017-09-04T00:28:09.334Z,12.36
2017-09-04T00:29:06.563Z,12.34
2017-09-04T00:30:03.838Z,12.32
2017-09-04T00:31:01.073Z,12.32
2017-09-04T00:31:58.354Z,12.31
2017-09-04T00:32:55.569Z,12.30
2017-09-04T00:33:52.817Z,12.29
2017-09-04T00:34:50.038Z,12.28
2017-09-04T00:35:47.334Z,12.26
2017-09-04T00:36:44.570Z,12.25
2017-09-04T00:37:41.829Z,12.23
2017-09-04T00:38:39.083Z,12.23
2017-09-04T00:39:36.338Z,12.22
2017-09-04T00:40:33.594Z,12.21
2017-09-04T00:41:30.845Z,12.20
2017-09-04T00:42:28.082Z,12.19
2017-09-04T00:43:25.694Z,12.18
2017-09-04T00:44:22.918Z,12.16
2017-09-04T00:45:20.209Z,12.15
2017-09-04T00:46:17.449Z,12.14
2017-09-04T00:47:14.717Z,12.13
2017-09-04T00:48:11.954Z,12.11
2017-09-04T00:49:09.224Z,12.10
2017-09-04T00:50:06.447Z,12.10
2017-09-04T00:51:03.721Z,12.08
2017-09-04T00:52:00.945Z,12.07
2017-09-04T00:52:58.202Z,12.07
2017-09-04T00:53:55.414Z,12.06
2017-09-04T00:54:52.668Z,12.03
2017-09-04T00:55:49.918Z,12.03
2017-09-04T00:56:47.177Z,12.02
2017-09-04T00:57:44.436Z,12.02
2017-09-04T00:58:41.749Z,12.00
2017-09-04T00:59:38.982Z,12.00
2017-09-04T01:00:36.265Z,12.00
2017-09-04T01:01:33.531Z,11.97
2017-09-04T01:02:30.858Z,11.97
2017-09-04T01:03:34.091Z,11.95
2017-09-04T01:04:31.458Z,11.95
2017-09-04T01:05:28.825Z,11.95
2017-09-04T01:06:26.137Z,11.93
2017-09-04T01:07:23.501Z,11.92
2017-09-04T01:08:20.753Z,11.91
2017-09-04T01:09:17.994Z,11.89
2017-09-04T01:10:15.266Z,11.89
2017-09-04T01:11:12.522Z,11.88
2017-09-04T01:12:09.790Z,11.88
2017-09-04T01:13:07.013Z,11.87
2017-09-04T01:14:04.282Z,11.85
2017-09-04T01:15:01.539Z,11.84
2017-09-04T01:15:58.843Z,11.84
2017-09-04T01:16:56.093Z,11.81
2017-09-04T01:17:53.361Z,11.80
2017-09-04T01:18:50.593Z,11.79
2017-09-04T01:19:47.853Z,11.78
2017-09-04T01:20:45.234Z,11.77
2017-09-04T01:21:42.513Z,11.78
2017-09-04T01:22:39.761Z,11.76
2017-09-04T01:23:37.005Z,11.75
2017-09-04T01:24:34.249Z,11.73
2017-09-04T01:25:31.533Z,11.73
2017-09-04T01:26:28.964Z,11.72
2017-09-04T01:27:26.315Z,11.71
2017-09-04T01:28:23.588Z,11.71
2017-09-04T01:29:20.857Z,11.70
2017-09-04T01:30:18.127Z,11.69
2017-09-04T01:31:15.406Z,11.68
2017-09-04T01:32:12.673Z,11.68
2017-09-04T01:33:09.977Z,11.67
2017-09-04T01:34:07.228Z,11.65
2017-09-04T01:35:04.494Z,11.65
2017-09-04T01:36:01.734Z,11.63
2017-09-04T01:36:59.023Z,11.62
2017-09-04T01:37:56.245Z,11.62
2017-09-04T01:38:53.507Z,11.62
2017-09-04T01:39:50.748Z,11.62
2017-09-04T01:40:48.013Z,11.61
2017-09-04T01:41:45.274Z,11.59
2017-09-04T01:42:42.561Z,11.58
2017-09-04T01:43:39.798Z,11.58
2017-09-04T01:44:37.062Z,11.58
2017-09-04T01:45:34.691Z,11.56
2017-09-04T01:46:31.957Z,11.54
2017-09-04T01:47:29.230Z,11.53
2017-09-04T01:48:26.490Z,11.52
2017-09-04T01:49:23.709Z,11.52
2017-09-04T01:50:20.961Z,11.51
2017-09-04T01:51:18.206Z,11.49
2017-09-04T01:52:15.502Z,11.49
2017-09-04T01:53:12.726Z,11.47
2017-09-04T01:54:09.988Z,11.47
2017-09-04T01:55:07.228Z,11.47
2017-09-04T01:56:04.482Z,11.46
2017-09-04T01:57:01.711Z,11.45
2017-09-04T01:57:59.013Z,11.43
2017-09-04T01:58:56.306Z,11.41
2017-09-04T01:59:53.574Z,11.40
2017-09-04T02:00:50.814Z,11.40
2017-09-04T02:01:48.058Z,11.40
2017-09-04T02:02:45.321Z,11.38
2017-09-04T02:03:42.607Z,11.39
2017-09-04T02:04:39.837Z,11.37
2017-09-04T02:05:37.081Z,11.35
2017-09-04T02:06:34.323Z,11.35
2017-09-04T02:07:31.581Z,11.35
2017-09-04T02:08:28.821Z,11.34
2017-09-04T02:09:26.073Z,11.33
2017-09-04T02:10:23.305Z,11.31
2017-09-04T02:11:20.578Z,11.31
2017-09-04T02:12:17.858Z,11.30
2017-09-04T02:13:15.143Z,11.29
2017-09-04T02:14:12.393Z,11.28
2017-09-04T02:15:09.659Z,11.28
2017-09-04T02:16:06.882Z,11.28
2017-09-04T02:17:04.153Z,11.26
2017-09-04T02:18:01.410Z,11.27
2017-09-04T02:18:58.685Z,11.26
2017-09-04T02:19:55.934Z,11.25
2017-09-04T02:20:53.198Z,11.23
2017-09-04T02:21:50.438Z,11.23
2017-09-04T02:22:47.713Z,11.21
2017-09-04T02:23:44.973Z,11.21
2017-09-04T02:24:42.222Z,11.20
2017-09-04T02:25:39.469Z,11.20
2017-09-04T02:26:36.725Z,11.18
2017-09-04T02:27:34.021Z,11.16
2017-09-04T02:28:31.321Z,11.17
2017-09-04T02:29:28.571Z,11.14
2017-09-04T02:30:26.190Z,11.15
2017-09-04T02:31:23.434Z,11.14
2017-09-04T02:32:20.706Z,11.13
2017-09-04T02:33:17.985Z,11.13
2017-09-04T02:34:15.237Z,11.11
2017-09-04T02:35:12.476Z,11.10
2017-09-04T02:36:09.741Z,11.10
2017-09-04T02:37:06.970Z,11.09
2017-09-04T02:38:04.237Z,11.10
2017-09-04T02:39:01.590Z,11.09
2017-09-04T02:39:58.921Z,11.07
2017-09-04T02:40:56.164Z,11.07
2017-09-04T02:41:53.406Z,11.05
2017-09-04T02:42:50.622Z,11.05
2017-09-04T02:43:47.898Z,11.05
2017-09-04T02:44:45.107Z,11.04
2017-09-04T02:45:42.394Z,11.01
2017-09-04T02:46:39.618Z,11.01
2017-09-04T02:47:36.897Z,11.00
2017-09-04T02:48:34.123Z,11.00
2017-09-04T02:49:31.444Z,11.00
2017-09-04T02:50:28.680Z,10.99
2017-09-04T02:51:25.934Z,10.98
2017-09-04T02:52:23.323Z,10.97
2017-09-04T02:53:20.738Z,10.97
2017-09-04T02:54:17.985Z,10.95
2017-09-04T02:55:15.250Z,10.96
2017-09-04T02:56:12.553Z,10.94
2017-09-04T02:57:09.818Z,10.95
2017-09-04T02:58:07.072Z,10.94
2017-09-04T02:59:04.371Z,10.93
2017-09-04T03:00:01.638Z,10.93
2017-09-04T03:00:58.930Z,10.93
2017-09-04T03:01:56.190Z,10.91
2017-09-04T03:02:53.481Z,10.91
2017-09-04T03:03:50.733Z,10.89
2017-09-04T03:04:48.017Z,10.89
2017-09-04T03:05:45.293Z,10.89
2017-09-04T03:06:42.545Z,10.87
2017-09-04T03:07:39.798Z,10.86
2017-09-04T03:08:37.069Z,10.85
2017-09-04T03:09:34.352Z,10.85
2017-09-04T03:10:31.646Z,10.85
2017-09-04T03:11:28.873Z,10.84
2017-09-04T03:12:26.150Z,10.82
2017-09-04T03:13:23.377Z,10.81
2017-09-04T03:14:20.670Z,10.82
2017-09-04T03:15:17.938Z,10.81
2017-09-04T03:16:15.234Z,10.82
2017-09-04T03:17:12.498Z,10.81
2017-09-04T03:18:09.758Z,10.81
2017-09-04T03:19:06.976Z,10.79
2017-09-04T03:20:04.241Z,10.79
2017-09-04T03:21:01.466Z,10.78
2017-09-04T03:21:58.719Z,10.77
2017-09-04T03:22:55.965Z,10.76
2017-09-04T03:23:53.221Z,10.77
2017-09-04T03:24:50.470Z,10.76
2017-09-04T03:25:47.734Z,10.75
2017-09-04T03:26:44.963Z,10.74
2017-09-04T03:27:42.234Z,10.73
2017-09-04T03:28:39.453Z,10.73
2017-09-04T03:29:36.730Z,10.72
2017-09-04T03:30:33.976Z,10.72
2017-09-04T03:31:31.274Z,10.70
2017-09-04T03:32:28.521Z,10.69
2017-09-04T03:33:25.769Z,10.70
2017-09-04T03:34:23.011Z,10.68
2017-09-04T03:35:20.286Z,10.68
2017-09-04T03:36:17.515Z,10.68
2017-09-04T03:37:14.766Z,10.66
2017-09-04T03:38:12.024Z,10.66
2017-09-04T03:39:09.277Z,10.64
2017-09-04T03:40:06.557Z,10.65
2017-09-04T03:41:05.849Z,10.63
2017-09-04T03:42:03.109Z,10.62
2017-09-04T03:43:00.417Z,10.60
2017-09-04T03:44:00.155Z,10.61
2017-09-04T03:44:57.437Z,10.61
2017-09-04T03:45:54.815Z,10.60
2017-09-04T03:46:52.146Z,10.59
2017-09-04T03:47:49.498Z,10.59
2017-09-04T03:48:46.777Z,10.59
2017-09-04T03:49:44.124Z,10.57
2017-09-04T03:50:41.453Z,10.57
2017-09-04T03:51:38.770Z,10.56
2017-09-04T03:52:36.090Z,10.55
2017-09-04T03:53:33.482Z,10.55
2017-09-04T03:54:30.782Z,10.54
2017-09-04T03:55:28.174Z,10.54
2017-09-04T03:56:25.466Z,10.52
2017-09-04T03:57:22.786Z,10.52
2017-09-04T03:58:20.074Z,10.51
2017-09-04T03:59:19.385Z,10.51
2017-09-04T04:00:16.598Z,10.50
2017-09-04T04:01:13.869Z,10.50
2017-09-04T04:02:11.133Z,10.48
2017-09-04T04:03:08.398Z,10.48
2017-09-04T04:04:05.641Z,10.46
2017-09-04T04:05:02.930Z,10.47
2017-09-04T04:06:00.212Z,10.46
2017-09-04T04:06:57.493Z,10.45
2017-09-04T04:07:54.802Z,10.45
2017-09-04T04:08:52.117Z,10.44
2017-09-04T04:09:49.383Z,10.42
2017-09-04T04:10:46.686Z,10.43
2017-09-04T04:11:43.926Z,10.41
2017-09-04T04:12:41.214Z,10.41
2017-09-04T04:13:38.497Z,10.41
2017-09-04T04:14:35.758Z,10.41
2017-09-04T04:15:33.061Z,10.39
2017-09-04T04:16:30.398Z,10.38
2017-09-04T04:17:27.652Z,10.37
2017-09-04T04:18:24.943Z,10.37
2017-09-04T04:19:22.198Z,10.37
2017-09-04T04:20:19.489Z,10.36
2017-09-04T04:21:16.785Z,10.35
2017-09-04T04:22:14.162Z,10.34
2017-09-04T04:23:11.421Z,10.34
2017-09-04T04:24:08.674Z,10.34
2017-09-04T04:25:05.911Z,10.34
2017-09-04T04:26:03.279Z,10.34
2017-09-04T04:27:00.609Z,10.31
2017-09-04T04:27:57.889Z,10.31
2017-09-04T04:28:55.189Z,10.32
2017-09-04T04:29:52.485Z,10.29
2017-09-04T04:30:49.750Z,10.30
2017-09-04T04:31:47.036Z,10.29
2017-09-04T04:32:44.296Z,10.28
2017-09-04T04:33:41.602Z,10.28
2017-09-04T04:34:38.878Z,10.27
2017-09-04T04:35:36.150Z,10.26
2017-09-04T04:36:33.414Z,10.26
2017-09-04T04:37:30.740Z,10.26
2017-09-04T04:38:27.979Z,10.25
2017-09-04T04:39:25.278Z,10.22
2017-09-04T04:40:22.582Z,10.23
2017-09-04T04:41:19.926Z,10.21
2017-09-04T04:42:17.201Z,10.21
2017-09-04T04:43:14.478Z,10.21
2017-09-04T04:44:11.717Z,10.20
2017-09-04T04:45:09.015Z,10.20
2017-09-04T04:46:06.262Z,10.19
2017-09-04T04:47:03.593Z,10.19
2017-09-04T04:48:00.842Z,10.18
2017-09-04T04:48:58.136Z,10.18
2017-09-04T04:49:55.411Z,10.16
2017-09-04T04:50:52.675Z,10.16
2017-09-04T04:51:49.946Z,10.16
2017-09-04T04:52:47.267Z,10.16
2017-09-04T04:53:44.517Z,10.15
2017-09-04T04:54:41.794Z,10.15
2017-09-04T04:55:39.030Z,10.13
2017-09-04T04:56:36.326Z,10.12
2017-09-04T04:57:33.582Z,10.14
2017-09-04T04:58:30.863Z,10.12
2017-09-04T04:59:28.130Z,10.12
2017-09-04T05:00:25.415Z,10.11
2017-09-04T05:01:22.662Z,10.11
2017-09-04T05:02:19.969Z,10.11
2017-09-04T05:03:17.234Z,10.10
2017-09-04T05:04:14.514Z,10.09
2017-09-04T05:05:11.762Z,10.08
2017-09-04T05:06:09.074Z,10.08
2017-09-04T05:07:06.344Z,10.09
2017-09-04T05:08:03.687Z,10.09
2017-09-04T05:09:00.938Z,10.06
2017-09-04T05:09:58.230Z,10.07
2017-09-04T05:10:55.467Z,10.06
2017-09-04T05:11:52.770Z,10.06
2017-09-04T05:12:50.019Z,10.04
2017-09-04T05:13:47.290Z,10.05
2017-09-04T05:14:44.548Z,10.03
2017-09-04T05:15:41.820Z,10.05
2017-09-04T05:16:39.139Z,10.03
2017-09-04T05:17:36.435Z,10.03
2017-09-04T05:18:33.669Z,10.04
2017-09-04T05:19:30.942Z,10.03
2017-09-04T05:20:28.197Z,10.02
2017-09-04T05:21:25.437Z,10.00
2017-09-04T05:22:22.686Z,10.00
2017-09-04T05:23:19.965Z,9.99
2017-09-04T05:24:17.257Z,9.99
2017-09-04T05:25:14.539Z,9.99
2017-09-04T05:26:11.775Z,9.99
2017-09-04T05:27:09.059Z,9.98
2017-09-04T05:28:06.783Z,9.98
2017-09-04T05:29:04.077Z,9.97
2017-09-04T05:30:01.310Z,9.97
2017-09-04T05:30:58.560Z,9.97
2017-09-04T05:31:55.799Z,9.97
2017-09-04T05:32:53.098Z,9.96
2017-09-04T05:33:50.318Z,9.96
2017-09-04T05:34:47.624Z,9.96
2017-09-04T05:35:44.847Z,9.95
2017-09-04T05:36:42.160Z,9.95
2017-09-04T05:37:39.389Z,9.95
2017-09-04T05:38:36.674Z,9.95
2017-09-04T05:39:33.885Z,9.96
2017-09-04T05:40:31.126Z,9.94
2017-09-04T05:41:28.355Z,9.94
2017-09-04T05:42:25.604Z,9.93
2017-09-04T05:43:22.847Z,9.93
2017-09-04T05:44:20.092Z,9.93
2017-09-04T05:45:17.299Z,9.93
2017-09-04T05:46:14.529Z,9.92
2017-09-04T05:47:13.833Z,9.92
2017-09-04T05:48:11.130Z,9.92
2017-09-04T05:49:08.393Z,9.90
2017-09-04T05:50:05.589Z,9.91
2017-09-04T05:51:02.849Z,9.91
2017-09-04T05:52:00.093Z,9.90
2017-09-04T05:52:57.358Z,9.89
2017-09-04T05:53:54.581Z,9.89
2017-09-04T05:54:51.833Z,9.88
2017-09-04T05:55:49.041Z,9.88
2017-09-04T05:56:46.301Z,9.87
2017-09-04T05:57:43.525Z,9.89
2017-09-04T05:58:40.790Z,9.87
2017-09-04T05:59:38.026Z,9.87
2017-09-04T06:00:35.276Z,9.87
2017-09-04T06:01:32.510Z,9.87
2017-09-04T06:02:29.761Z,9.88
2017-09-04T06:03:27.045Z,9.86
2017-09-04T06:04:24.379Z,9.87
2017-09-04T06:05:21.622Z,9.87
2017-09-04T06:06:18.898Z,9.87
2017-09-04T06:07:16.150Z,9.86
2017-09-04T06:08:13.406Z,9.86
2017-09-04T06:09:10.653Z,9.85
2017-09-04T06:10:07.898Z,9.86
2017-09-04T06:11:05.112Z,9.87
2017-09-04T06:12:02.354Z,9.86
2017-09-04T06:12:59.561Z,9.86
2017-09-04T06:13:56.865Z,9.85
2017-09-04T06:14:54.698Z,9.86
2017-09-04T06:15:51.946Z,9.85
2017-09-04T06:16:49.160Z,9.83
2017-09-04T06:17:46.422Z,9.84
2017-09-04T06:18:43.673Z,9.83
2017-09-04T06:19:40.934Z,9.85
2017-09-04T06:20:38.221Z,9.85
2017-09-04T06:21:35.479Z,9.82
2017-09-04T06:22:32.713Z,9.85
2017-09-04T06:23:29.990Z,9.83
2017-09-04T06:24:27.233Z,9.85
2017-09-04T06:25:24.481Z,9.83
2017-09-04T06:26:21.714Z,9.85
2017-09-04T06:27:18.981Z,9.85
2017-09-04T06:28:16.242Z,9.87
2017-09-04T06:29:13.517Z,9.87
2017-09-04T06:30:10.742Z,9.88
2017-09-04T06:31:07.991Z,9.89
2017-09-04T06:32:05.206Z,9.89
2017-09-04T06:33:02.461Z,9.89
2017-09-04T06:33:59.713Z,9.91
2017-09-04T06:34:56.999Z,9.92
2017-09-04T06:35:54.226Z,9.93
2017-09-04T06:36:51.474Z,9.93
2017-09-04T06:37:48.713Z,9.93
2017-09-04T06:38:45.954Z,9.94
2017-09-04T06:39:43.202Z,9.94
2017-09-04T06:40:40.454Z,9.95
2017-09-04T06:41:37.689Z,9.97
2017-09-04T06:42:34.952Z,9.97
2017-09-04T06:43:32.206Z,9.98
2017-09-04T06:44:29.473Z,9.98
2017-09-04T06:45:26.725Z,9.98
2017-09-04T06:46:24.007Z,10.01
2017-09-04T06:47:21.233Z,10.00
2017-09-04T06:48:18.515Z,10.01
2017-09-04T06:49:15.747Z,10.03
2017-09-04T06:50:13.026Z,10.05
2017-09-04T06:51:10.245Z,10.06
2017-09-04T06:52:07.494Z,10.06
2017-09-04T06:53:04.718Z,10.07
2017-09-04T06:54:01.962Z,10.07
2017-09-04T06:54:59.194Z,10.07
2017-09-04T06:55:56.894Z,10.08
2017-09-04T06:56:54.133Z,10.10
2017-09-04T06:57:51.390Z,10.11
2017-09-04T06:58:48.618Z,10.12
2017-09-04T06:59:45.901Z,10.13
2017-09-04T07:00:43.126Z,10.13
2017-09-04T07:01:40.375Z,10.14
2017-09-04T07:02:37.628Z,10.16
2017-09-04T07:03:34.886Z,10.16
2017-09-04T07:04:32.125Z,10.17
2017-09-04T07:05:29.412Z,10.19
2017-09-04T07:06:26.634Z,10.19
2017-09-04T07:07:23.896Z,10.21
2017-09-04T07:08:21.143Z,10.20
2017-09-04T07:09:18.402Z,10.22
2017-09-04T07:10:15.671Z,10.22
2017-09-04T07:11:12.933Z,10.22
2017-09-04T07:12:10.137Z,10.25
2017-09-04T07:13:07.390Z,10.26
2017-09-04T07:14:04.638Z,10.27
2017-09-04T07:15:01.882Z,10.29
2017-09-04T07:15:59.125Z,10.29
2017-09-04T07:16:56.371Z,10.29
2017-09-04T07:17:53.734Z,10.32
2017-09-04T07:18:50.997Z,10.33
2017-09-04T07:19:48.205Z,10.34
2017-09-04T07:20:45.486Z,10.34
2017-09-04T07:21:42.725Z,10.35
2017-09-04T07:22:39.986Z,10.37
2017-09-04T07:23:37.222Z,10.39
2017-09-04T07:24:34.478Z,10.39
2017-09-04T07:25:31.731Z,10.40
2017-09-04T07:26:28.987Z,10.42
2017-09-04T07:27:26.275Z,10.44
2017-09-04T07:28:23.536Z,10.44
2017-09-04T07:29:20.782Z,10.45
2017-09-04T07:30:18.021Z,10.47
2017-09-04T07:31:15.302Z,10.48
2017-09-04T07:32:12.555Z,10.48
2017-09-04T07:33:09.793Z,10.52
2017-09-04T07:34:07.038Z,10.53
2017-09-04T07:35:04.278Z,10.53
2017-09-04T07:36:01.570Z,10.54
2017-09-04T07:36:58.802Z,10.56
2017-09-04T07:37:56.052Z,10.57
2017-09-04T07:38:53.266Z,10.58
2017-09-04T07:39:50.934Z,10.59
2017-09-04T07:40:48.175Z,10.62
2017-09-04T07:41:45.473Z,10.63
2017-09-04T07:42:42.701Z,10.64
2017-09-04T07:43:40.090Z,10.65
2017-09-04T07:44:37.313Z,10.66
2017-09-04T07:45:36.837Z,10.68
2017-09-04T07:46:34.110Z,10.69
2017-09-04T07:47:31.325Z,10.70
2017-09-04T07:48:28.609Z,10.71
2017-09-04T07:49:25.826Z,10.72
2017-09-04T07:50:23.082Z,10.73
2017-09-04T07:51:20.309Z,10.75
2017-09-04T07:52:17.575Z,10.75
2017-09-04T07:53:14.822Z,10.77
2017-09-04T07:54:12.087Z,10.78
2017-09-04T07:55:09.344Z,10.79
2017-09-04T07:56:06.629Z,10.79
2017-09-04T07:57:03.851Z,10.82
2017-09-04T07:58:01.119Z,10.83
2017-09-04T07:58:58.376Z,10.84
2017-09-04T07:59:55.630Z,10.85
2017-09-04T08:00:52.836Z,10.86
2017-09-04T08:01:50.105Z,10.88
2017-09-04T08:02:47.354Z,10.89
2017-09-04T08:03:44.603Z,10.90
2017-09-04T08:04:41.808Z,10.92
2017-09-04T08:05:39.066Z,10.94
2017-09-04T08:06:36.355Z,10.94
2017-09-04T08:07:33.598Z,10.95
2017-09-04T08:08:30.813Z,10.97
2017-09-04T08:09:28.089Z,10.98
2017-09-04T08:10:25.328Z,11.00
2017-09-04T08:11:22.578Z,11.01
2017-09-04T08:12:19.854Z,11.02
2017-09-04T08:13:17.129Z,11.02
2017-09-04T08:14:14.390Z,11.05
2017-09-04T08:15:11.705Z,11.05
2017-09-04T08:16:08.961Z,11.08
2017-09-04T08:17:06.273Z,11.08
2017-09-04T08:18:03.535Z,11.10
2017-09-04T08:19:00.803Z,11.12
2017-09-04T08:19:58.540Z,11.14
2017-09-04T08:20:56.175Z,11.14
2017-09-04T08:21:53.457Z,11.15
2017-09-04T08:22:50.863Z,11.18
2017-09-04T08:23:48.169Z,11.19
2017-09-04T08:24:45.457Z,11.20
2017-09-04T08:25:42.693Z,11.20
2017-09-04T08:26:40.970Z,11.22
2017-09-04T08:27:38.266Z,11.24
2017-09-04T08:28:35.521Z,11.25
2017-09-04T08:29:32.781Z,11.26
2017-09-04T08:30:30.038Z,11.29
2017-09-04T08:31:27.321Z,11.29
2017-09-04T08:32:24.606Z,11.32
2017-09-04T08:33:21.833Z,11.31
2017-09-04T08:34:19.078Z,11.33
2017-09-04T08:35:16.292Z,11.33
2017-09-04T08:36:13.572Z,11.36
2017-09-04T08:37:10.841Z,11.38
2017-09-04T08:38:08.114Z,11.39
2017-09-04T08:39:05.344Z,11.39
2017-09-04T08:40:02.602Z,11.41
2017-09-04T08:40:59.837Z,11.41
2017-09-04T08:41:57.094Z,11.43
2017-09-04T08:42:54.331Z,11.45
2017-09-04T08:43:51.585Z,11.45
2017-09-04T08:44:50.881Z,11.48
2017-09-04T08:45:48.141Z,11.48
2017-09-04T08:46:45.380Z,11.49
2017-09-04T08:47:42.647Z,11.52
2017-09-04T08:48:39.966Z,11.53
2017-09-04T08:49:37.266Z,11.54
2017-09-04T08:50:36.586Z,11.55
2017-09-04T08:51:33.877Z,11.57
2017-09-04T08:52:31.153Z,11.58
2017-09-04T08:53:28.455Z,11.60
2017-09-04T08:54:25.741Z,11.61
2017-09-04T08:55:23.174Z,11.62
2017-09-04T08:56:20.466Z,11.64
2017-09-04T08:57:17.731Z,11.65
2017-09-04T08:58:15.083Z,11.67
2017-09-04T08:59:12.323Z,11.69
2017-09-04T09:00:09.567Z,11.71
2017-09-04T09:01:06.819Z,11.72
2017-09-04T09:02:04.062Z,11.74
2017-09-04T09:03:01.346Z,11.74
2017-09-04T09:03:58.642Z,11.76
2017-09-04T09:04:55.935Z,11.76
2017-09-04T09:05:53.192Z,11.79
2017-09-04T09:06:50.484Z,11.79
2017-09-04T09:07:48.120Z,11.82
2017-09-04T09:08:46.567Z,11.82
2017-09-04T09:09:44.099Z,11.85
2017-09-04T09:10:41.341Z,11.87
2017-09-04T09:11:38.939Z,11.87
2017-09-04T09:12:36.453Z,11.88
2017-09-04T09:13:33.725Z,11.91
2017-09-04T09:14:30.954Z,11.92
2017-09-04T09:15:28.221Z,11.93
2017-09-04T09:16:25.450Z,11.94
2017-09-04T09:17:22.712Z,11.96
2017-09-04T09:18:19.961Z,11.98
2017-09-04T09:19:17.221Z,11.98
2017-09-04T09:20:14.545Z,12.01
2017-09-04T09:21:11.878Z,12.02
2017-09-04T09:22:09.103Z,12.02
2017-09-04T09:23:06.410Z,12.05
2017-09-04T09:24:05.749Z,12.05
2017-09-04T09:25:02.969Z,12.07
2017-09-04T09:26:02.278Z,12.10
2017-09-04T09:27:01.594Z,12.11
2017-09-04T09:27:58.889Z,12.12
2017-09-04T09:28:56.231Z,12.14
2017-09-04T09:29:53.565Z,12.16
2017-09-04T09:30:50.861Z,12.17
2017-09-04T09:31:48.133Z,12.19
2017-09-04T09:32:45.439Z,12.20
2017-09-04T09:33:42.734Z,12.21
2017-09-04T09:34:39.954Z,12.24
2017-09-04T09:35:37.217Z,12.25
2017-09-04T09:36:34.478Z,12.27
2017-09-04T09:37:31.725Z,12.27
2017-09-04T09:38:28.975Z,12.30
2017-09-04T09:39:26.250Z,12.31
2017-09-04T09:40:23.481Z,12.32
2017-09-04T09:41:20.748Z,12.35
2017-09-04T09:42:17.971Z,12.36
2017-09-04T09:43:15.233Z,12.37
2017-09-04T09:44:12.486Z,12.39
2017-09-04T09:45:09.747Z,12.41
2017-09-04T09:46:06.966Z,12.42
2017-09-04T09:47:04.221Z,12.44
2017-09-04T09:48:01.477Z,12.45
2017-09-04T09:48:58.762Z,12.47
2017-09-04T09:50:00.638Z,12.49
2017-09-04T09:50:59.938Z,12.51
2017-09-04T09:51:59.226Z,12.52
2017-09-04T09:52:56.552Z,12.54
2017-09-04T09:53:53.910Z,12.57
2017-09-04T09:54:51.234Z,12.58
2017-09-04T09:55:48.531Z,12.60
2017-09-04T09:56:45.922Z,12.63
2017-09-04T09:57:43.245Z,12.64
2017-09-04T09:58:40.641Z,12.67
2017-09-04T09:59:37.954Z,12.69
2017-09-04T10:00:35.334Z,12.70
2017-09-04T10:01:34.752Z,12.73
2017-09-04T10:02:32.083Z,12.74
2017-09-04T10:03:29.400Z,12.78
2017-09-04T10:04:26.861Z,12.79
2017-09-04T10:05:24.217Z,12.79
2017-09-04T10:06:21.513Z,12.83
2017-09-04T10:07:18.838Z,12.85
2017-09-04T10:08:16.167Z,12.86
2017-09-04T10:09:13.513Z,12.90
2017-09-04T10:10:13.110Z,12.92
2017-09-04T10:11:10.410Z,12.94
2017-09-04T10:12:07.774Z,12.96
2017-09-04T10:13:05.083Z,12.97
2017-09-04T10:14:02.451Z,13.01
2017-09-04T10:15:00.110Z,13.01
2017-09-04T10:15:57.421Z,13.03
2017-09-04T10:16:54.717Z,13.07
2017-09-04T10:17:52.113Z,13.08
2017-09-04T10:18:49.416Z,13.09
2017-09-04T10:19:46.746Z,13.12
2017-09-04T10:20:44.044Z,13.14
2017-09-04T10:21:41.373Z,13.15
2017-09-04T10:22:38.686Z,13.18
2017-09-04T10:23:35.998Z,13.20
2017-09-04T10:24:33.362Z,13.22
2017-09-04T10:25:30.698Z,13.24
2017-09-04T10:26:28.004Z,13.26
2017-09-04T10:27:25.329Z,13.29
2017-09-04T10:28:22.658Z,13.31
2017-09-04T10:29:19.985Z,13.31
2017-09-04T10:30:17.291Z,13.35
2017-09-04T10:31:14.606Z,13.36
2017-09-04T10:32:11.934Z,13.38
2017-09-04T10:33:09.245Z,13.40
2017-09-04T10:34:06.605Z,13.41
2017-09-04T10:35:03.961Z,13.44
2017-09-04T10:36:01.342Z,13.46
2017-09-04T10:36:58.694Z,13.48
2017-09-04T10:37:56.026Z,13.50
2017-09-04T10:38:53.358Z,13.53
2017-09-04T10:39:50.674Z,13.54
2017-09-04T10:40:48.023Z,13.56
2017-09-04T10:41:45.350Z,13.58
2017-09-04T10:42:42.704Z,13.60
2017-09-04T10:43:40.007Z,13.61
2017-09-04T10:44:37.348Z,13.64
2017-09-04T10:45:34.714Z,13.66
2017-09-04T10:46:32.067Z,13.69
2017-09-04T10:47:29.391Z,13.70
2017-09-04T10:48:26.795Z,13.71
2017-09-04T10:49:24.149Z,13.74
2017-09-04T10:50:21.595Z,13.75
2017-09-04T10:51:18.918Z,13.78
2017-09-04T10:52:16.306Z,13.81
2017-09-04T10:53:13.722Z,13.81
2017-09-04T10:54:11.077Z,13.85
2017-09-04T10:55:08.414Z,13.86
2017-09-04T10:56:05.705Z,13.89
2017-09-04T10:57:02.971Z,13.91
2017-09-04T10:58:00.259Z,13.94
2017-09-04T10:58:57.506Z,13.95
2017-09-04T10:59:54.858Z,13.95
2017-09-04T11:00:52.142Z,13.99
2017-09-04T11:01:49.447Z,14.00
2017-09-04T11:02:46.698Z,14.03
2017-09-04T11:03:43.965Z,14.06
2017-09-04T11:04:41.206Z,14.07
2017-09-04T11:05:38.531Z,14.10
2017-09-04T11:06:35.765Z,14.12
2017-09-04T11:07:33.194Z,14.15
2017-09-04T11:08:30.465Z,14.16
2017-09-04T11:09:27.731Z,14.18
2017-09-04T11:10:24.966Z,14.19
2017-09-04T11:11:24.302Z,14.22
2017-09-04T11:12:21.641Z,14.24
2017-09-04T11:13:18.942Z,14.26
2017-09-04T11:14:16.309Z,14.28
2017-09-04T11:15:13.645Z,14.30
2017-09-04T11:16:10.949Z,14.32
2017-09-04T11:17:08.267Z,14.33
2017-09-04T11:18:05.679Z,14.36
2017-09-04T11:19:03.079Z,14.38
2017-09-04T11:20:00.477Z,14.40
2017-09-04T11:20:57.892Z,14.43
2017-09-04T11:21:55.382Z,14.44
2017-09-04T11:22:52.735Z,14.47
2017-09-04T11:23:50.085Z,14.48
2017-09-04T11:24:47.473Z,14.51
2017-09-04T11:25:44.866Z,14.52
2017-09-04T11:26:42.238Z,14.55
2017-09-04T11:27:41.589Z,14.56
2017-09-04T11:28:38.935Z,14.57
2017-09-04T11:29:36.214Z,14.60
2017-09-04T11:30:33.612Z,14.63
2017-09-04T11:31:30.973Z,14.63
2017-09-04T11:32:28.337Z,14.65
2017-09-04T11:33:25.613Z,14.67
2017-09-04T11:34:22.992Z,14.70
2017-09-04T11:35:20.306Z,14.71
2017-09-04T11:36:17.627Z,14.74
2017-09-04T11:37:14.964Z,14.76
2017-09-04T11:38:12.374Z,14.77
2017-09-04T11:39:09.734Z,14.80
2017-09-04T11:40:07.122Z,14.81
2017-09-04T11:41:04.390Z,14.82
2017-09-04T11:42:01.764Z,14.85
2017-09-04T11:42:59.019Z,14.87
2017-09-04T11:43:56.340Z,14.89
2017-09-04T11:44:53.586Z,14.90
2017-09-04T11:45:50.903Z,14.92
2017-09-04T11:46:48.191Z,14.95
2017-09-04T11:47:45.555Z,14.97
2017-09-04T11:48:42.901Z,14.97
2017-09-04T11:49:40.315Z,15.00
2017-09-04T11:50:37.595Z,15.02
2017-09-04T11:51:34.947Z,15.02
2017-09-04T11:52:32.324Z,15.03
2017-09-04T11:53:29.768Z,15.07
2017-09-04T11:54:27.116Z,15.10
2017-09-04T11:55:24.436Z,15.10
2017-09-04T11:56:21.730Z,15.13
2017-09-04T11:57:21.059Z,15.14
2017-09-04T11:58:18.310Z,15.15
2017-09-04T11:59:15.556Z,15.18
2017-09-04T12:00:12.806Z,15.19
2017-09-04T12:01:10.094Z,15.21
2017-09-04T12:02:07.366Z,15.22
2017-09-04T12:03:04.662Z,15.25
2017-09-04T12:04:01.927Z,15.25
2017-09-04T12:04:59.262Z,15.28
2017-09-04T12:05:56.555Z,15.30
2017-09-04T12:06:53.850Z,15.30
2017-09-04T12:07:51.123Z,15.32
2017-09-04T12:08:48.486Z,15.34
2017-09-04T12:09:45.735Z,15.36
2017-09-04T12:10:43.123Z,15.38
2017-09-04T12:11:40.504Z,15.39
2017-09-04T12:12:37.865Z,15.42
2017-09-04T12:13:35.178Z,15.43
2017-09-04T12:14:32.445Z,15.44
2017-09-04T12:15:29.815Z,15.47
2017-09-04T12:16:27.066Z,15.48
2017-09-04T12:17:24.322Z,15.51
2017-09-04T12:18:21.617Z,15.52
2017-09-04T12:19:18.870Z,15.55
2017-09-04T12:20:16.157Z,15.55
2017-09-04T12:21:13.398Z,15.58